Time;durP1;ratioP1;P1;durP2;ratioP2;P2;SDS_P1;SDS_P2;PMS_P1;PMS_P2;Temp;Humidity;BMP_temperature;BMP_pressure;BME280_temperature;BME280_humidity;BME280_pressure;Samples;Min_cycle;Max_cycle;Signal;HPM_P1;HPM_P2
2022/09/17 00:01:20;;;;;;;0.50;0.50;;;;;;;23.53;54.13;94261.91;5043183;28;20439;-71
2022/09/17 00:03:52;;;;;;;0.40;0.40;;;;;;;23.13;55.16;94260.31;5043199;28;20450;-69
2022/09/17 00:06:21;;;;;;;0.60;0.60;;;;;;;23.41;55.08;94256.72;5029410;28;20448;-68
2022/09/17 00:08:49;;;;;;;0.70;0.70;;;;;;;23.80;53.12;94247.53;5029748;28;20459;-70
2022/09/17 00:11:27;;;;;;;0.37;0.37;;;;;;;24.01;52.58;94251.41;5034605;28;20439;-67
2022/09/17 00:13:56;;;;;;;0.77;0.63;;;;;;;23.25;54.33;94240.69;5035420;28;20447;-65
2022/09/17 00:16:31;;;;;;;0.50;0.50;;;;;;;23.76;53.31;94234.09;5035355;28;20209;-68
2022/09/17 00:18:59;;;;;;;0.77;0.73;;;;;;;23.47;53.94;94231.22;5048961;28;20196;-67
2022/09/17 00:21:27;;;;;;;0.70;0.70;;;;;;;23.77;52.76;94218.84;5043211;28;20535;-69
2022/09/17 00:24:02;;;;;;;0.50;0.50;;;;;;;23.18;54.27;94229.84;5041178;28;20500;-70
2022/09/17 00:26:30;;;;;;;0.33;0.33;;;;;;;23.31;54.33;94242.00;5048980;28;20655;-66
2022/09/17 00:28:57;;;;;;;1.30;1.20;;;;;;;23.61;53.35;94240.28;5037397;28;20890;-69
2022/09/17 00:31:26;;;;;;;0.27;0.27;;;;;;;23.26;54.46;94215.50;5043140;28;20460;-67
2022/09/17 00:33:53;;;;;;;1.90;1.80;;;;;;;23.22;54.59;94222.69;5039032;28;20434;-71
2022/09/17 00:36:20;;;;;;;0.33;0.33;;;;;;;23.33;54.35;94236.28;5035284;28;20315;-69
2022/09/17 00:38:52;;;;;;;0.43;0.43;;;;;;;23.58;53.42;94234.88;5040717;28;20227;-69
2022/09/17 00:41:21;;;;;;;0.27;0.27;;;;;;;23.52;53.15;94238.97;5043297;28;20259;-67
2022/09/17 00:43:54;;;;;;;1.60;1.50;;;;;;;23.53;53.18;94240.50;5037029;28;20271;-69
2022/09/17 00:46:21;;;;;;;1.10;1.00;;;;;;;23.69;52.57;94238.53;5036930;28;20251;-68
2022/09/17 00:48:49;;;;;;;0.47;0.47;;;;;;;23.54;52.94;94258.13;5052534;28;20925;-69
2022/09/17 00:51:21;;;;;;;0.60;0.60;;;;;;;23.40;52.80;94247.13;5039498;28;20197;-68
2022/09/17 00:53:48;;;;;;;0.10;0.10;;;;;;;23.27;53.42;94251.78;5045382;28;20711;-65
2022/09/17 00:56:18;;;;;;;0.63;0.63;;;;;;;23.41;53.33;94243.34;5044351;28;20507;-68
2022/09/17 00:58:45;;;;;;;2.13;1.60;;;;;;;23.61;52.30;94252.91;5032275;28;20448;-67
2022/09/17 01:01:13;;;;;;;0.50;0.50;;;;;;;23.60;51.96;94268.19;5039522;28;20283;-68
2022/09/17 01:03:40;;;;;;;0.13;0.13;;;;;;;23.33;52.92;94268.38;5038940;28;20197;-68
2022/09/17 01:06:24;;;;;;;1.70;0.80;;;;;;;23.28;52.82;94258.72;5037739;28;20658;-68
2022/09/17 01:09:29;;;;;;;0.33;0.33;;;;;;;23.56;52.19;94269.22;5037914;28;20185;-66
2022/09/17 01:12:20;;;;;;;0.30;0.30;;;;;;;23.51;52.17;94258.81;5043596;28;20724;-68
2022/09/17 01:15:02;;;;;;;0.43;0.43;;;;;;;23.01;53.91;94244.38;5045284;28;20271;-64
2022/09/17 01:17:29;;;;;;;0.40;0.40;;;;;;;23.58;52.04;94226.84;5047557;28;20573;-69
2022/09/17 01:20:29;;;;;;;0.10;0.10;;;;;;;22.40;54.98;94231.84;5045020;28;20614;-69
2022/09/17 01:23:11;;;;;;;0.90;0.63;;;;;;;22.99;53.76;94217.22;5036245;28;20193;-65
2022/09/17 01:26:03;;;;;;;1.53;0.83;;;;;;;23.16;53.53;94231.34;5039746;28;20440;-68
2022/09/17 01:28:57;;;;;;;1.23;1.13;;;;;;;23.39;52.76;94224.19;5040030;28;20324;-64
2022/09/17 01:31:29;;;;;;;0.27;0.27;;;;;;;22.88;54.21;94237.59;5034108;28;20530;-69
2022/09/17 01:34:11;;;;;;;1.63;1.03;;;;;;;22.99;54.26;94227.91;5031729;28;20483;-71
2022/09/17 01:36:42;;;;;;;0.40;0.40;;;;;;;23.09;53.54;94254.09;5050016;28;20836;-69
2022/09/17 01:39:43;;;;;;;2.10;0.50;;;;;;;22.59;55.42;94229.28;5051675;28;20446;-68
2022/09/17 01:42:18;;;;;;;0.10;0.10;;;;;;;22.70;55.08;94232.97;5051658;28;20526;-68
2022/09/17 01:45:08;;;;;;;0.60;0.50;;;;;;;22.75;55.13;94212.13;5037665;28;20474;-66
2022/09/17 01:47:46;;;;;;;0.30;0.30;;;;;;;23.38;53.33;94214.63;5051463;28;20522;-71
2022/09/17 01:50:24;;;;;;;0.50;0.50;;;;;;;23.24;53.96;94216.97;5032316;28;20446;-65
2022/09/17 01:52:54;;;;;;;0.53;0.47;;;;;;;22.87;54.60;94187.97;5031157;28;20443;-67
2022/09/17 01:55:25;;;;;;;0.30;0.30;;;;;;;23.44;53.23;94189.94;5048959;28;20486;-71
2022/09/17 01:57:54;;;;;;;0.43;0.43;;;;;;;23.39;53.28;94187.53;5038025;28;20319;-66
2022/09/17 02:00:22;;;;;;;0.10;0.10;;;;;;;23.25;53.63;94231.91;5037247;28;20509;-67
2022/09/17 02:03:04;;;;;;;0.40;0.40;;;;;;;23.05;54.35;94231.88;5051127;28;20537;-67
2022/09/17 02:05:42;;;;;;;0.30;0.30;;;;;;;23.09;54.02;94211.34;5037119;28;20451;-70
2022/09/17 02:08:27;;;;;;;0.70;0.70;;;;;;;22.71;55.59;94224.63;5051353;28;20651;-70
2022/09/17 02:11:04;;;;;;;0.37;0.37;;;;;;;22.76;55.03;94186.16;5037004;28;20522;-71
2022/09/17 02:13:37;;;;;;;1.30;0.60;;;;;;;22.80;54.67;94166.44;5051163;28;20508;-67
2022/09/17 02:16:11;;;;;;;0.47;0.47;;;;;;;22.11;56.56;94171.69;5036646;28;21018;-66
2022/09/17 02:18:49;;;;;;;0.10;0.10;;;;;;;22.42;56.09;94144.97;5040099;28;20848;-68
2022/09/17 02:21:41;;;;;;;0.50;0.37;;;;;;;21.91;57.34;94151.34;5029151;28;20440;-67
2022/09/17 02:24:08;;;;;;;0.10;0.10;;;;;;;22.26;56.64;94098.84;5044491;28;20512;-68
2022/09/17 02:26:44;;;;;;;0.20;0.20;;;;;;;22.79;54.73;94095.44;5031906;28;20452;-66
2022/09/17 02:29:29;;;;;;;0.43;0.43;;;;;;;22.40;55.87;94123.19;5057099;28;20443;-67
2022/09/17 02:31:56;;;;;;;0.30;0.30;;;;;;;21.96;57.36;94082.53;5043197;28;20442;-65
2022/09/17 02:34:26;;;;;;;0.10;0.10;;;;;;;22.46;56.11;94071.06;5050662;28;20474;-69
2022/09/17 02:37:00;;;;;;;0.57;0.57;;;;;;;22.88;54.49;94061.25;5050520;28;21012;-69
2022/09/17 02:39:27;;;;;;;0.20;0.20;;;;;;;22.74;54.29;94092.25;5050244;28;20449;-66
2022/09/17 02:42:22;;;;;;;0.23;0.23;;;;;;;22.64;54.21;94120.31;5036835;28;20435;-68
2022/09/17 02:45:13;;;;;;;1.07;0.97;;;;;;;23.19;53.19;94126.38;5036166;28;20459;-67
2022/09/17 02:48:01;;;;;;;0.10;0.10;;;;;;;22.87;54.13;94117.72;5050431;28;20492;-67
2022/09/17 02:50:41;;;;;;;0.10;0.10;;;;;;;23.37;52.90;94108.81;5030778;28;20440;-69
2022/09/17 02:53:30;;;;;;;0.67;0.67;;;;;;;23.09;53.55;94093.75;5044405;28;20451;-68
2022/09/17 02:56:24;;;;;;;0.30;0.30;;;;;;;23.23;53.42;94097.84;5033692;28;20981;-68
2022/09/17 02:59:18;;;;;;;0.10;0.10;;;;;;;22.99;53.49;94123.69;5045933;28;20542;-67
2022/09/17 03:01:51;;;;;;;0.13;0.13;;;;;;;22.01;56.59;94124.16;5049922;28;20196;-67
2022/09/17 03:04:21;;;;;;;0.10;0.10;;;;;;;22.35;55.74;94086.09;5049743;28;21011;-68
2022/09/17 03:06:51;;;;;;;0.10;0.10;;;;;;;22.87;54.38;94080.31;5038717;28;20535;-67
2022/09/17 03:09:17;;;;;;;0.30;0.30;;;;;;;22.66;54.58;94094.00;5051031;28;20447;-66
2022/09/17 03:11:45;;;;;;;0.30;0.30;;;;;;;22.98;53.91;94078.63;5030301;28;20455;-69
2022/09/17 03:14:12;;;;;;;0.10;0.10;;;;;;;22.96;53.69;94068.31;5043958;28;20883;-68
2022/09/17 03:16:39;;;;;;;0.87;0.83;;;;;;;23.17;53.21;94083.19;5030163;28;20453;-68
2022/09/17 03:19:06;;;;;;;2.30;1.47;;;;;;;23.13;53.20;94089.25;5044424;28;20985;-67
2022/09/17 03:21:33;;;;;;;0.50;0.50;;;;;;;23.36;52.62;94081.28;5042888;28;20889;-67
2022/09/17 03:23:59;;;;;;;0.30;0.30;;;;;;;22.80;54.26;94064.94;5042413;28;20439;-70
2022/09/17 03:26:26;;;;;;;0.40;0.40;;;;;;;23.13;53.30;94067.09;5044742;28;20440;-68
2022/09/17 03:28:54;;;;;;;0.73;0.73;;;;;;;22.82;53.78;94099.31;5040639;28;20459;-70
2022/09/17 03:31:21;;;;;;;0.57;0.40;;;;;;;22.12;55.96;94087.81;5049794;28;20486;-67
2022/09/17 03:33:49;;;;;;;0.20;0.20;;;;;;;22.43;56.02;94071.75;5049905;28;20439;-65
2022/09/17 03:36:15;;;;;;;1.97;0.93;;;;;;;22.19;55.62;94079.97;5035669;28;20479;-69
2022/09/17 03:38:42;;;;;;;0.20;0.20;;;;;;;21.90;57.38;94064.44;5049855;28;20894;-67
2022/09/17 03:41:10;;;;;;;0.57;0.57;;;;;;;22.73;55.09;94048.00;5049604;28;20435;-68
2022/09/17 03:43:38;;;;;;;0.30;0.27;;;;;;;22.36;55.56;94071.59;5035806;28;20459;-68
2022/09/17 03:46:05;;;;;;;2.63;1.80;;;;;;;21.86;57.66;94074.28;5049737;28;20518;-67
2022/09/17 03:48:35;;;;;;;0.20;0.20;;;;;;;22.43;55.87;94028.25;5030614;28;20501;-70
2022/09/17 03:51:03;;;;;;;0.77;0.77;;;;;;;22.08;57.46;94060.28;5029577;28;20513;-67
2022/09/17 03:53:30;;;;;;;0.13;0.13;;;;;;;21.72;58.20;94049.88;5046880;28;20492;-67
2022/09/17 03:56:00;;;;;;;1.13;1.13;;;;;;;22.02;57.29;94035.00;5039509;28;20453;-68
2022/09/17 03:58:29;;;;;;;0.30;0.30;;;;;;;22.59;56.47;94048.47;5042020;28;20471;-68
2022/09/17 04:00:56;;;;;;;0.40;0.40;;;;;;;22.11;57.30;94064.94;5035645;28;20442;-66
2022/09/17 04:03:24;;;;;;;1.47;0.97;;;;;;;22.13;57.33;94065.38;5038537;28;20900;-70
2022/09/17 04:05:51;;;;;;;0.10;0.10;;;;;;;22.90;55.10;94075.03;5043227;28;20473;-66
2022/09/17 04:08:19;;;;;;;0.33;0.30;;;;;;;23.08;53.89;94065.47;5039032;28;20443;-67
2022/09/17 04:10:46;;;;;;;0.10;0.10;;;;;;;23.24;53.56;94088.69;5049111;28;21020;-68
2022/09/17 04:13:15;;;;;;;1.20;0.93;;;;;;;23.32;53.68;94083.13;5049431;28;20549;-68
2022/09/17 04:15:42;;;;;;;0.40;0.40;;;;;;;23.44;53.47;94084.88;5049110;28;20508;-67
2022/09/17 04:18:09;;;;;;;0.43;0.33;;;;;;;23.22;54.34;94080.22;5049028;28;21009;-70
2022/09/17 04:20:36;;;;;;;0.30;0.30;;;;;;;23.36;54.09;94092.00;5048821;28;20442;-67
2022/09/17 04:23:03;;;;;;;1.23;1.13;;;;;;;23.13;54.64;94129.34;5033844;28;20523;-68
2022/09/17 04:25:31;;;;;;;0.50;0.50;;;;;;;23.26;54.04;94139.88;5031855;28;20201;-66
2022/09/17 04:27:58;;;;;;;0.47;0.47;;;;;;;23.22;53.96;94150.50;5036750;28;20185;-67
2022/09/17 04:30:25;;;;;;;1.80;1.50;;;;;;;23.38;53.95;94158.47;5043194;28;21096;-66
2022/09/17 04:32:52;;;;;;;0.43;0.43;;;;;;;23.28;54.28;94153.66;5048861;28;20457;-67
2022/09/17 04:35:18;;;;;;;0.30;0.30;;;;;;;22.77;55.15;94169.78;5052887;28;20517;-69
2022/09/17 04:37:52;;;;;;;8.93;1.60;;;;;;;22.95;54.91;94181.66;5052757;28;20228;-69
2022/09/17 04:40:19;;;;;;;0.93;0.80;;;;;;;23.41;53.59;94176.50;5032844;28;20458;-67
2022/09/17 04:42:46;;;;;;;0.80;0.77;;;;;;;23.30;54.13;94197.69;5032555;28;20562;-70
2022/09/17 04:45:13;;;;;;;0.70;0.70;;;;;;;23.01;54.89;94201.63;5052344;28;20434;-68
2022/09/17 04:47:40;;;;;;;0.50;0.50;;;;;;;22.80;55.74;94211.06;5052722;28;20824;-66
2022/09/17 04:50:07;;;;;;;0.57;0.57;;;;;;;22.96;55.33;94223.28;5048458;28;20438;-67
2022/09/17 04:52:34;;;;;;;0.60;0.60;;;;;;;23.12;55.05;94215.19;5031013;28;20896;-69
2022/09/17 04:55:01;;;;;;;0.60;0.60;;;;;;;22.51;56.21;94222.97;5033888;28;20268;-68
2022/09/17 04:57:28;;;;;;;2.40;1.37;;;;;;;22.49;57.49;94240.44;5033793;28;20479;-68
2022/09/17 04:59:54;;;;;;;1.57;1.47;;;;;;;22.60;57.30;94244.97;5042616;28;20539;-67
2022/09/17 05:02:21;;;;;;;0.83;0.80;;;;;;;23.04;55.39;94251.72;5052434;28;20836;-68
2022/09/17 05:04:49;;;;;;;4.53;0.77;;;;;;;22.62;57.58;94250.72;5052219;28;20437;-69
2022/09/17 05:07:16;;;;;;;0.50;0.50;;;;;;;23.19;55.64;94246.66;5037629;28;20443;-69
2022/09/17 05:09:43;;;;;;;0.23;0.23;;;;;;;23.07;56.20;94239.53;5044909;28;20974;-69
2022/09/17 05:12:09;;;;;;;0.40;0.40;;;;;;;22.95;56.69;94227.06;5045522;28;20524;-69
2022/09/17 05:14:36;;;;;;;0.30;0.30;;;;;;;23.10;56.35;94231.59;5046638;28;20467;-70
2022/09/17 05:17:03;;;;;;;0.30;0.30;;;;;;;22.61;56.83;94227.81;5032419;28;20521;-69
2022/09/17 05:19:30;;;;;;;0.33;0.33;;;;;;;23.03;56.05;94226.09;5045653;28;20642;-69
2022/09/17 05:21:57;;;;;;;0.47;0.47;;;;;;;22.90;56.49;94205.94;5041877;28;20509;-67
2022/09/17 05:24:24;;;;;;;0.47;0.47;;;;;;;23.47;54.48;94193.78;5056004;28;20439;-64
2022/09/17 05:26:51;;;;;;;1.60;0.70;;;;;;;23.60;55.13;94187.16;5047170;28;20444;-64
2022/09/17 05:29:17;;;;;;;0.37;0.37;;;;;;;23.68;54.23;94176.25;5047154;28;20466;-68
2022/09/17 05:31:44;;;;;;;0.77;0.73;;;;;;;23.43;54.51;94166.22;5056031;28;20526;-67
2022/09/17 05:34:11;;;;;;;0.50;0.50;;;;;;;23.66;54.47;94172.38;5051184;28;20250;-65
2022/09/17 05:36:38;;;;;;;0.20;0.20;;;;;;;23.71;54.02;94177.44;5032758;28;21136;-66
2022/09/17 05:39:05;;;;;;;0.43;0.43;;;;;;;23.44;56.67;94195.28;5031526;28;20316;-66
2022/09/17 05:41:33;;;;;;;0.20;0.20;;;;;;;23.46;56.18;94202.94;5034308;28;20447;-66
2022/09/17 05:44:00;;;;;;;1.50;1.17;;;;;;;23.24;57.23;94211.63;5051088;28;20578;-71
2022/09/17 05:46:26;;;;;;;0.30;0.30;;;;;;;23.47;55.95;94204.47;5051591;28;20260;-67
2022/09/17 05:48:56;;;;;;;1.13;0.97;;;;;;;23.69;55.10;94219.81;5043516;28;20906;-70
2022/09/17 05:51:23;;;;;;;0.60;0.60;;;;;;;23.59;55.48;94217.72;5032162;28;20276;-67
2022/09/17 05:53:53;;;;;;;2.63;0.97;;;;;;;23.46;55.42;94211.75;5037365;28;20188;-70
2022/09/17 05:56:20;;;;;;;0.70;0.70;;;;;;;23.61;55.50;94216.22;5042364;28;20444;-65
2022/09/17 05:58:47;;;;;;;1.17;1.03;;;;;;;23.79;54.60;94209.34;5030739;28;20499;-65
2022/09/17 06:01:15;;;;;;;0.63;0.63;;;;;;;23.28;56.60;94217.81;5038568;28;20197;-67
2022/09/17 06:03:41;;;;;;;0.30;0.30;;;;;;;23.59;55.77;94217.72;5037537;28;20229;-67
2022/09/17 06:06:09;;;;;;;0.40;0.40;;;;;;;23.42;56.32;94207.44;5045082;28;20440;-68
2022/09/17 06:08:36;;;;;;;0.77;0.77;;;;;;;23.31;57.24;94195.75;5043070;28;20200;-69
2022/09/17 06:11:04;;;;;;;0.20;0.20;;;;;;;23.14;57.45;94216.41;5051219;28;20216;-68
2022/09/17 06:13:32;;;;;;;0.30;0.30;;;;;;;23.33;57.02;94198.84;5040780;28;20440;-66
2022/09/17 06:16:00;;;;;;;0.40;0.40;;;;;;;23.33;57.72;94222.91;5047913;28;20295;-68
2022/09/17 06:18:29;;;;;;;0.87;0.87;;;;;;;23.38;57.08;94230.66;5041509;28;20680;-69
2022/09/17 06:21:01;;;;;;;0.20;0.20;;;;;;;23.38;56.48;94254.72;5032506;28;20437;-68
2022/09/17 06:23:36;;;;;;;0.30;0.30;;;;;;;23.22;57.85;94272.69;5050733;28;20656;-66
2022/09/17 06:26:04;;;;;;;0.30;0.30;;;;;;;23.16;57.27;94284.78;5049029;28;20203;-68
2022/09/17 06:28:31;;;;;;;0.60;0.60;;;;;;;22.81;58.97;94280.16;5038901;28;20192;-66
2022/09/17 06:31:03;;;;;;;0.30;0.30;;;;;;;23.45;56.66;94289.66;5050577;28;20277;-68
2022/09/17 06:33:31;;;;;;;0.70;0.70;;;;;;;23.28;56.66;94290.00;5050866;28;20197;-69
2022/09/17 06:36:01;;;;;;;5.30;1.53;;;;;;;23.25;57.29;94298.72;5051196;28;20454;-68
2022/09/17 06:38:31;;;;;;;1.23;0.57;;;;;;;23.35;57.24;94314.25;5036328;28;20294;-67
2022/09/17 06:40:58;;;;;;;1.13;1.07;;;;;;;23.23;57.63;94306.31;5038147;28;20660;-69
2022/09/17 06:43:25;;;;;;;0.30;0.30;;;;;;;23.42;56.51;94298.34;5034217;28;20478;-69
2022/09/17 06:45:58;;;;;;;0.77;0.77;;;;;;;23.33;57.43;94292.44;5050449;28;20556;-66
2022/09/17 06:48:28;;;;;;;0.43;0.43;;;;;;;23.65;56.34;94285.88;5050289;28;20200;-68
2022/09/17 06:51:00;;;;;;;1.00;0.90;;;;;;;23.89;55.66;94253.44;5039840;28;20189;-67
2022/09/17 06:53:28;;;;;;;1.07;0.93;;;;;;;23.54;57.05;94266.91;5032685;28;20283;-65
2022/09/17 06:55:59;;;;;;;3.03;1.63;;;;;;;23.94;56.21;94263.88;5040892;28;20187;-68
2022/09/17 06:58:33;;;;;;;0.40;0.40;;;;;;;23.93;55.66;94254.28;5042947;28;20216;-69
2022/09/17 07:01:01;;;;;;;2.23;1.37;;;;;;;23.51;57.68;94245.44;5030790;28;20537;-67
2022/09/17 07:03:29;;;;;;;1.33;1.07;;;;;;;23.89;56.15;94237.38;5041414;28;20447;-67
2022/09/17 07:05:57;;;;;;;4.03;1.53;;;;;;;24.10;56.31;94237.81;5035781;28;20885;-65
2022/09/17 07:08:25;;;;;;;0.40;0.40;;;;;;;23.42;57.72;94244.88;5049519;28;20644;-69
2022/09/17 07:10:56;;;;;;;0.63;0.63;;;;;;;23.70;57.09;94224.06;5049643;28;20197;-70
2022/09/17 07:13:23;;;;;;;0.77;0.73;;;;;;;24.20;56.08;94221.16;5040325;28;20444;-68
2022/09/17 07:15:54;;;;;;;1.70;1.27;;;;;;;24.44;55.58;94203.97;5045248;28;20223;-68
2022/09/17 07:18:22;;;;;;;1.27;1.17;;;;;;;24.16;56.52;94185.53;5049284;28;20220;-67
2022/09/17 07:21:09;;;;;;;0.37;0.37;;;;;;;24.53;55.19;94181.16;5035302;28;20582;-69
2022/09/17 07:23:36;;;;;;;0.67;0.67;;;;;;;24.16;58.14;94182.84;5040101;28;20691;-68
2022/09/17 07:26:07;;;;;;;1.03;0.93;;;;;;;24.56;57.05;94163.59;5045626;28;20208;-68
2022/09/17 07:28:38;;;;;;;0.50;0.50;;;;;;;24.71;56.44;94174.19;5049262;28;20196;-67
2022/09/17 07:31:05;;;;;;;0.50;0.50;;;;;;;25.10;54.96;94177.41;5049584;28;20196;-70
2022/09/17 07:33:33;;;;;;;0.57;0.57;;;;;;;24.77;55.27;94175.44;5049874;28;20303;-66
2022/09/17 07:36:02;;;;;;;0.30;0.30;;;;;;;25.22;54.10;94181.78;5050114;28;20945;-66
2022/09/17 07:38:30;;;;;;;0.30;0.30;;;;;;;24.44;55.40;94180.63;5036407;28;20216;-66
2022/09/17 07:41:05;;;;;;;0.23;0.23;;;;;;;24.12;56.83;94181.25;5044237;28;20201;-68
2022/09/17 07:43:34;;;;;;;0.33;0.33;;;;;;;24.37;55.81;94169.03;5043194;28;20236;-69
2022/09/17 07:46:03;;;;;;;0.10;0.10;;;;;;;25.20;53.65;94170.63;5029687;28;20208;-69
2022/09/17 07:48:30;;;;;;;0.20;0.20;;;;;;;25.47;52.71;94164.09;5047614;28;20267;-67
2022/09/17 07:50:57;;;;;;;0.17;0.17;;;;;;;25.70;50.61;94162.81;5038757;28;20216;-67
2022/09/17 07:53:25;;;;;;;8.10;0.97;;;;;;;25.17;50.59;94172.13;5031719;28;20209;-65
2022/09/17 07:55:52;;;;;;;0.10;0.10;;;;;;;25.65;49.98;94159.69;5045442;28;20292;-67
2022/09/17 07:58:23;;;;;;;8.20;1.30;;;;;;;25.95;50.17;94153.09;5044597;28;20231;-67
2022/09/17 08:00:50;;;;;;;0.10;0.10;;;;;;;25.59;50.75;94163.84;5053397;28;20196;-67
2022/09/17 08:03:17;;;;;;;0.40;0.30;;;;;;;25.86;49.18;94143.78;5043146;28;20200;-66
2022/09/17 08:05:44;;;;;;;0.10;0.10;;;;;;;26.20;48.53;94155.25;5050166;28;20296;-70
2022/09/17 08:08:11;;;;;;;0.20;0.20;;;;;;;26.11;48.90;94150.22;5045116;28;20216;-68
2022/09/17 08:10:39;;;;;;;0.20;0.20;;;;;;;26.13;49.91;94139.84;5048523;28;20231;-68
2022/09/17 08:13:06;;;;;;;0.30;0.30;;;;;;;25.91;50.17;94140.78;5052959;28;20680;-68
2022/09/17 08:15:36;;;;;;;0.30;0.30;;;;;;;26.00;50.34;94149.31;5053223;28;20238;-67
2022/09/17 08:18:03;;;;;;;0.23;0.23;;;;;;;26.09;50.31;94141.75;5033133;28;20223;-67
2022/09/17 08:20:30;;;;;;;0.77;0.40;;;;;;;26.14;49.63;94119.13;5032984;28;20189;-69
2022/09/17 08:22:58;;;;;;;0.10;0.10;;;;;;;26.48;48.91;94136.66;5045878;28;20660;-68
2022/09/17 08:25:26;;;;;;;0.73;0.63;;;;;;;26.18;48.13;94128.78;5043667;28;20299;-65
2022/09/17 08:27:55;;;;;;;0.20;0.20;;;;;;;26.77;47.78;94133.81;5052895;28;20192;-69
2022/09/17 08:30:22;;;;;;;1.07;0.77;;;;;;;26.11;48.44;94128.72;5053789;28;20224;-69
2022/09/17 08:32:49;;;;;;;0.10;0.10;;;;;;;25.97;48.56;94117.81;5056180;28;20480;-65
2022/09/17 08:35:16;;;;;;;0.10;0.10;;;;;;;26.20;48.03;94131.09;5054942;28;20208;-65
2022/09/17 08:37:43;;;;;;;0.10;0.10;;;;;;;25.92;48.60;94137.72;5043309;28;20193;-67
2022/09/17 08:40:18;;;;;;;0.10;0.10;;;;;;;26.31;47.68;94121.97;5038061;28;20312;-70
2022/09/17 08:42:59;;;;;;;0.20;0.20;;;;;;;26.73;47.20;94132.28;5037684;28;20361;-69
2022/09/17 08:45:26;;;;;;;0.10;0.10;;;;;;;26.97;45.42;94129.69;5031250;28;20551;-70
2022/09/17 08:48:00;;;;;;;0.20;0.20;;;;;;;27.19;44.73;94116.38;5032638;28;20203;-69
2022/09/17 08:50:33;;;;;;;0.30;0.30;;;;;;;26.97;45.43;94128.91;5032867;28;20197;-68
2022/09/17 08:53:07;;;;;;;0.30;0.30;;;;;;;26.93;45.11;94123.53;5032401;28;20205;-69
2022/09/17 08:55:52;;;;;;;0.63;0.63;;;;;;;26.61;46.43;94114.50;5032288;28;20201;-70
2022/09/17 08:58:19;;;;;;;0.63;0.63;;;;;;;26.95;45.15;94123.94;5032510;28;20580;-68
2022/09/17 09:01:27;;;;;;;0.10;0.10;;;;;;;26.50;44.81;94129.78;5046210;28;20549;-68
2022/09/17 09:03:59;;;;;;;0.30;0.30;;;;;;;26.56;45.80;94124.81;5047423;28;20634;-68
2022/09/17 09:06:31;;;;;;;0.10;0.10;;;;;;;26.48;46.21;94126.69;5043982;28;20197;-68
2022/09/17 09:09:14;;;;;;;0.20;0.20;;;;;;;26.50;45.32;94126.31;5047285;28;20310;-68
2022/09/17 09:11:42;;;;;;;0.10;0.10;;;;;;;26.09;46.85;94122.94;5052241;28;20295;-70
2022/09/17 09:14:23;;;;;;;0.30;0.30;;;;;;;26.00;48.04;94146.63;5052077;28;20750;-70
2022/09/17 09:16:52;;;;;;;0.40;0.40;;;;;;;26.22;47.81;94145.69;5052388;28;20262;-69
2022/09/17 09:19:32;;;;;;;0.30;0.30;;;;;;;25.97;49.62;94144.66;5037786;28;20219;-68
2022/09/17 09:22:12;;;;;;;0.10;0.10;;;;;;;26.50;48.31;94151.28;5052347;28;20728;-69
2022/09/17 09:25:11;;;;;;;0.40;0.40;;;;;;;26.38;48.58;94151.56;5047379;28;20205;-67
2022/09/17 09:27:54;;;;;;;0.93;0.93;;;;;;;26.25;49.10;94165.66;5030797;28;20205;-68
2022/09/17 09:30:23;;;;;;;0.50;0.50;;;;;;;26.17;49.25;94167.50;5041054;28;20192;-66
2022/09/17 09:33:04;;;;;;;0.70;0.70;;;;;;;26.17;48.79;94191.66;5051978;28;20192;-67
2022/09/17 09:35:35;;;;;;;0.17;0.17;;;;;;;25.56;50.21;94188.72;5042251;28;20279;-69
2022/09/17 09:38:08;;;;;;;0.20;0.20;;;;;;;25.60;51.46;94184.16;5031489;28;20733;-67
2022/09/17 09:40:54;;;;;;;1.30;1.00;;;;;;;25.76;51.45;94208.88;5040724;28;20208;-70
2022/09/17 09:43:43;;;;;;;0.20;0.20;;;;;;;25.65;50.20;94213.34;5051436;28;20228;-66
2022/09/17 09:46:48;;;;;;;0.10;0.10;;;;;;;25.70;50.76;94215.69;5036998;28;20247;-65
2022/09/17 09:49:39;;;;;;;3.03;1.80;;;;;;;25.42;52.11;94199.28;5051201;28;20223;-67
2022/09/17 09:52:48;;;;;;;0.60;0.60;;;;;;;25.81;51.30;94221.97;5031463;28;20243;-65
2022/09/17 09:55:36;;;;;;;0.20;0.20;;;;;;;25.47;52.06;94220.41;5052684;28;20211;-66
2022/09/17 09:58:31;;;;;;;0.40;0.40;;;;;;;25.67;51.74;94227.97;5038110;28;20205;-68
2022/09/17 10:00:58;;;;;;;1.30;1.20;;;;;;;25.51;52.90;94242.72;5031557;28;20572;-71
2022/09/17 10:03:31;;;;;;;0.40;0.40;;;;;;;25.23;53.80;94239.63;5042824;28;20206;-69
2022/09/17 10:06:09;;;;;;;0.40;0.40;;;;;;;25.01;54.83;94183.03;5031388;28;20243;-71
2022/09/17 10:08:39;;;;;;;3.23;1.33;;;;;;;24.93;55.67;94200.16;5042791;28;20231;-70
2022/09/17 10:11:20;;;;;;;6.07;2.67;;;;;;;24.63;55.74;94175.19;5050691;28;20255;-70
2022/09/17 10:13:47;;;;;;;0.50;0.50;;;;;;;24.64;56.42;94149.16;5037904;28;20189;-69
2022/09/17 10:16:28;;;;;;;0.93;0.93;;;;;;;25.01;55.42;94142.84;5049758;28;20279;-68
2022/09/17 10:19:04;;;;;;;1.93;1.73;;;;;;;25.24;54.49;94133.88;5035670;28;20231;-68
2022/09/17 10:21:33;;;;;;;2.93;2.07;;;;;;;24.34;57.48;94119.66;5030767;28;20201;-66
2022/09/17 10:24:02;;;;;;;1.03;1.00;;;;;;;24.45;57.13;94112.53;5043520;28;20212;-68
2022/09/17 10:26:35;;;;;;;0.37;0.37;;;;;;;24.96;55.39;94097.56;5050426;28;20809;-70
2022/09/17 10:29:13;;;;;;;0.80;0.80;;;;;;;24.22;56.33;94089.63;5050484;28;20193;-68
2022/09/17 10:31:51;;;;;;;0.50;0.50;;;;;;;23.99;57.93;94106.47;5036223;28;20197;-69
2022/09/17 10:34:24;;;;;;;2.63;0.80;;;;;;;24.57;56.60;94101.63;5050451;28;20266;-67
2022/09/17 10:36:53;;;;;;;0.17;0.17;;;;;;;24.72;55.73;94108.75;5049198;28;20258;-70
2022/09/17 10:39:26;;;;;;;0.27;0.27;;;;;;;24.75;55.99;94107.25;5030491;28;20240;-67
2022/09/17 10:42:13;;;;;;;0.30;0.30;;;;;;;24.78;55.76;94109.22;5036493;28;20950;-67
2022/09/17 10:44:54;;;;;;;0.40;0.40;;;;;;;24.64;56.85;94096.38;5050000;28;20225;-71
2022/09/17 10:47:27;;;;;;;0.30;0.30;;;;;;;24.55;56.72;94092.41;5050648;28;20196;-68
2022/09/17 10:50:16;;;;;;;0.10;0.10;;;;;;;24.79;55.84;94060.63;5048294;28;20210;-66
2022/09/17 10:52:51;;;;;;;0.10;0.10;;;;;;;24.35;56.60;94051.59;5041212;28;20208;-67
2022/09/17 10:55:38;;;;;;;0.30;0.30;;;;;;;24.83;55.20;94066.03;5035048;28;20871;-69
2022/09/17 10:58:05;;;;;;;0.10;0.10;;;;;;;24.34;56.67;94034.00;5039452;28;20223;-69
2022/09/17 11:01:15;;;;;;;0.20;0.20;;;;;;;24.80;55.26;94018.50;5048129;28;20241;-67
2022/09/17 11:04:00;;;;;;;0.40;0.40;;;;;;;25.02;54.80;94010.34;5049509;28;20205;-67
2022/09/17 11:06:48;;;;;;;0.20;0.20;;;;;;;25.07;54.44;94020.72;5049923;28;20207;-68
2022/09/17 11:09:33;;;;;;;0.20;0.20;;;;;;;25.20;52.95;94042.69;5049579;28;20542;-72
2022/09/17 11:12:00;;;;;;;0.30;0.30;;;;;;;24.61;53.68;94062.28;5049604;28;20729;-70
2022/09/17 11:14:40;;;;;;;0.10;0.10;;;;;;;24.81;53.97;94074.44;5034512;28;20299;-68
2022/09/17 11:17:22;;;;;;;0.33;0.33;;;;;;;25.16;53.17;94066.03;5048645;28;20250;-67
2022/09/17 11:20:04;;;;;;;0.40;0.40;;;;;;;25.62;53.03;94058.47;5049591;28;20235;-70
2022/09/17 11:23:00;;;;;;;0.97;0.53;;;;;;;25.91;53.56;94060.25;5034351;28;20212;-67
2022/09/17 11:25:27;;;;;;;0.10;0.10;;;;;;;25.82;52.57;94073.97;5040216;28;20193;-67
2022/09/17 11:28:15;;;;;;;1.60;0.97;;;;;;;25.96;53.92;94090.22;5032770;28;20259;-67
2022/09/17 11:30:54;;;;;;;0.10;0.10;;;;;;;25.57;54.96;94099.03;5041429;28;20614;-66
2022/09/17 11:33:49;;;;;;;0.33;0.33;;;;;;;25.24;55.14;94101.72;5035992;28;20192;-68
2022/09/17 11:36:22;;;;;;;0.50;0.50;;;;;;;25.64;54.57;94094.50;5053828;28;20264;-67
2022/09/17 11:38:50;;;;;;;0.10;0.10;;;;;;;25.18;56.39;94092.47;5059724;28;20203;-66
2022/09/17 11:41:25;;;;;;;0.10;0.10;;;;;;;25.48;54.51;94082.47;5048471;28;20192;-67
2022/09/17 11:44:09;;;;;;;0.20;0.20;;;;;;;25.89;53.65;94084.78;5029180;28;20236;-68
2022/09/17 11:46:44;;;;;;;0.20;0.20;;;;;;;25.73;54.46;94070.84;5043480;28;20646;-67
2022/09/17 11:49:15;;;;;;;0.93;0.50;;;;;;;25.91;54.38;94081.75;5039757;28;20216;-68
2022/09/17 11:51:47;;;;;;;0.30;0.30;;;;;;;26.00;54.16;94101.00;5032071;28;20631;-68
2022/09/17 11:54:32;;;;;;;0.20;0.20;;;;;;;25.73;54.56;94064.72;5029419;28;20200;-67
2022/09/17 11:57:02;;;;;;;0.40;0.40;;;;;;;25.87;53.69;94080.94;5029602;28;20782;-65
2022/09/17 11:59:54;;;;;;;0.10;0.10;;;;;;;26.06;53.04;94066.53;5041830;28;20593;-68
2022/09/17 12:02:43;;;;;;;0.20;0.20;;;;;;;26.21;53.04;94071.63;5046173;28;20212;-67